sensor_id;sensor_type;location;lat;lon;timestamp;P1;durP1;ratioP1;P2;durP2;ratioP2
6173;SDS011;3120;48.796;9.796;2024-01-30T00:02:16;37.38;;;16.48;;
6173;SDS011;3120;48.796;9.796;2024-01-30T00:04:42;36.22;;;15.07;;
6173;SDS011;3120;48.796;9.796;2024-01-30T00:07:08;37.53;;;15.98;;
6173;SDS011;3120;48.796;9.796;2024-01-30T00:09:33;33.17;;;15.23;;
6173;SDS011;3120;48.796;9.796;2024-01-30T00:11:59;33.33;;;15.02;;
6173;SDS011;3120;48.796;9.796;2024-01-30T00:14:25;30.23;;;14.82;;
6173;SDS011;3120;48.796;9.796;2024-01-30T00:16:51;37.92;;;14.32;;
6173;SDS011;3120;48.796;9.796;2024-01-30T00:19:17;28.15;;;13.80;;
6173;SDS011;3120;48.796;9.796;2024-01-30T00:21:42;38.05;;;14.05;;
6173;SDS011;3120;48.796;9.796;2024-01-30T00:24:08;33.75;;;13.98;;
6173;SDS011;3120;48.796;9.796;2024-01-30T00:26:34;34.05;;;14.63;;
6173;SDS011;3120;48.796;9.796;2024-01-30T00:29:00;31.80;;;15.52;;
6173;SDS011;3120;48.796;9.796;2024-01-30T00:31:25;34.47;;;14.90;;
6173;SDS011;3120;48.796;9.796;2024-01-30T00:33:51;30.67;;;14.38;;
6173;SDS011;3120;48.796;9.796;2024-01-30T00:36:17;31.38;;;13.27;;
6173;SDS011;3120;48.796;9.796;2024-01-30T00:38:42;28.73;;;13.05;;
6173;SDS011;3120;48.796;9.796;2024-01-30T00:41:08;29.75;;;13.90;;
6173;SDS011;3120;48.796;9.796;2024-01-30T00:43:34;27.58;;;13.30;;
6173;SDS011;3120;48.796;9.796;2024-01-30T00:46:00;31.38;;;14.82;;
6173;SDS011;3120;48.796;9.796;2024-01-30T00:48:26;31.15;;;14.27;;
6173;SDS011;3120;48.796;9.796;2024-01-30T00:50:52;32.38;;;14.30;;
6173;SDS011;3120;48.796;9.796;2024-01-30T00:53:17;33.58;;;13.45;;
6173;SDS011;3120;48.796;9.796;2024-01-30T00:55:43;31.00;;;13.80;;
6173;SDS011;3120;48.796;9.796;2024-01-30T00:58:09;31.83;;;14.95;;
6173;SDS011;3120;48.796;9.796;2024-01-30T01:00:34;33.97;;;14.68;;
6173;SDS011;3120;48.796;9.796;2024-01-30T01:03:00;29.88;;;14.07;;
6173;SDS011;3120;48.796;9.796;2024-01-30T01:05:26;31.42;;;14.05;;
6173;SDS011;3120;48.796;9.796;2024-01-30T01:07:52;29.83;;;14.20;;
6173;SDS011;3120;48.796;9.796;2024-01-30T01:10:18;34.17;;;14.43;;
6173;SDS011;3120;48.796;9.796;2024-01-30T01:12:44;30.65;;;14.02;;
6173;SDS011;3120;48.796;9.796;2024-01-30T01:15:10;35.88;;;14.75;;
6173;SDS011;3120;48.796;9.796;2024-01-30T01:17:36;33.80;;;14.55;;
6173;SDS011;3120;48.796;9.796;2024-01-30T01:20:03;27.90;;;13.63;;
6173;SDS011;3120;48.796;9.796;2024-01-30T01:22:30;31.48;;;15.15;;
6173;SDS011;3120;48.796;9.796;2024-01-30T01:24:56;31.98;;;14.63;;
6173;SDS011;3120;48.796;9.796;2024-01-30T01:27:21;26.67;;;12.20;;
6173;SDS011;3120;48.796;9.796;2024-01-30T01:29:47;40.05;;;14.65;;
6173;SDS011;3120;48.796;9.796;2024-01-30T01:32:12;27.20;;;13.20;;
6173;SDS011;3120;48.796;9.796;2024-01-30T01:34:38;28.65;;;13.00;;
6173;SDS011;3120;48.796;9.796;2024-01-30T01:37:04;30.45;;;13.48;;
6173;SDS011;3120;48.796;9.796;2024-01-30T01:39:29;29.38;;;13.23;;
6173;SDS011;3120;48.796;9.796;2024-01-30T01:41:55;31.83;;;14.45;;
6173;SDS011;3120;48.796;9.796;2024-01-30T01:44:20;32.20;;;14.23;;
6173;SDS011;3120;48.796;9.796;2024-01-30T01:46:46;31.80;;;13.70;;
6173;SDS011;3120;48.796;9.796;2024-01-30T01:49:12;26.90;;;13.25;;
6173;SDS011;3120;48.796;9.796;2024-01-30T01:51:39;26.00;;;13.75;;
6173;SDS011;3120;48.796;9.796;2024-01-30T01:54:06;29.83;;;14.30;;
6173;SDS011;3120;48.796;9.796;2024-01-30T01:56:33;29.05;;;13.18;;
6173;SDS011;3120;48.796;9.796;2024-01-30T01:59:00;27.85;;;13.60;;
6173;SDS011;3120;48.796;9.796;2024-01-30T02:01:29;25.70;;;12.45;;
6173;SDS011;3120;48.796;9.796;2024-01-30T02:03:58;32.22;;;13.63;;
6173;SDS011;3120;48.796;9.796;2024-01-30T02:06:24;36.15;;;13.85;;
6173;SDS011;3120;48.796;9.796;2024-01-30T02:08:50;24.13;;;12.45;;
6173;SDS011;3120;48.796;9.796;2024-01-30T02:11:15;29.73;;;12.93;;
6173;SDS011;3120;48.796;9.796;2024-01-30T02:13:41;26.75;;;13.02;;
6173;SDS011;3120;48.796;9.796;2024-01-30T02:16:07;27.75;;;13.18;;
6173;SDS011;3120;48.796;9.796;2024-01-30T02:18:33;27.42;;;12.98;;
6173;SDS011;3120;48.796;9.796;2024-01-30T02:20:58;28.67;;;13.65;;
6173;SDS011;3120;48.796;9.796;2024-01-30T02:23:29;31.33;;;12.95;;
6173;SDS011;3120;48.796;9.796;2024-01-30T02:25:56;28.63;;;12.45;;
6173;SDS011;3120;48.796;9.796;2024-01-30T02:28:21;27.55;;;12.18;;
6173;SDS011;3120;48.796;9.796;2024-01-30T02:30:47;30.50;;;13.13;;
6173;SDS011;3120;48.796;9.796;2024-01-30T02:33:13;26.52;;;12.30;;
6173;SDS011;3120;48.796;9.796;2024-01-30T02:35:39;26.10;;;11.23;;
6173;SDS011;3120;48.796;9.796;2024-01-30T02:38:04;28.25;;;13.05;;
6173;SDS011;3120;48.796;9.796;2024-01-30T02:40:30;23.65;;;12.23;;
6173;SDS011;3120;48.796;9.796;2024-01-30T02:42:57;25.10;;;12.20;;
6173;SDS011;3120;48.796;9.796;2024-01-30T02:45:23;32.55;;;13.07;;
6173;SDS011;3120;48.796;9.796;2024-01-30T02:47:49;28.40;;;12.80;;
6173;SDS011;3120;48.796;9.796;2024-01-30T02:50:15;28.48;;;12.48;;
6173;SDS011;3120;48.796;9.796;2024-01-30T02:52:41;23.65;;;12.23;;
6173;SDS011;3120;48.796;9.796;2024-01-30T02:55:08;24.42;;;11.43;;
6173;SDS011;3120;48.796;9.796;2024-01-30T02:57:34;23.15;;;11.30;;
6173;SDS011;3120;48.796;9.796;2024-01-30T03:00:00;24.40;;;11.82;;
6173;SDS011;3120;48.796;9.796;2024-01-30T03:02:26;26.90;;;12.77;;
6173;SDS011;3120;48.796;9.796;2024-01-30T03:04:51;28.13;;;12.30;;
6173;SDS011;3120;48.796;9.796;2024-01-30T03:07:17;23.25;;;10.85;;
6173;SDS011;3120;48.796;9.796;2024-01-30T03:09:42;22.30;;;11.70;;
6173;SDS011;3120;48.796;9.796;2024-01-30T03:12:09;27.30;;;13.10;;
6173;SDS011;3120;48.796;9.796;2024-01-30T03:14:34;24.40;;;12.02;;
6173;SDS011;3120;48.796;9.796;2024-01-30T03:17:00;34.17;;;13.35;;
6173;SDS011;3120;48.796;9.796;2024-01-30T03:19:25;26.02;;;13.32;;
6173;SDS011;3120;48.796;9.796;2024-01-30T03:21:51;25.50;;;12.38;;
6173;SDS011;3120;48.796;9.796;2024-01-30T03:24:16;24.65;;;12.25;;
6173;SDS011;3120;48.796;9.796;2024-01-30T03:26:42;28.38;;;12.48;;
6173;SDS011;3120;48.796;9.796;2024-01-30T03:29:08;22.75;;;11.75;;
6173;SDS011;3120;48.796;9.796;2024-01-30T03:31:34;22.25;;;11.65;;
6173;SDS011;3120;48.796;9.796;2024-01-30T03:33:59;24.98;;;11.82;;
6173;SDS011;3120;48.796;9.796;2024-01-30T03:36:25;23.40;;;11.45;;
6173;SDS011;3120;48.796;9.796;2024-01-30T03:38:51;24.23;;;11.27;;
6173;SDS011;3120;48.796;9.796;2024-01-30T03:41:16;25.85;;;12.13;;
6173;SDS011;3120;48.796;9.796;2024-01-30T03:43:42;26.58;;;12.82;;
6173;SDS011;3120;48.796;9.796;2024-01-30T03:46:07;24.02;;;11.52;;
6173;SDS011;3120;48.796;9.796;2024-01-30T03:48:33;25.42;;;12.07;;
6173;SDS011;3120;48.796;9.796;2024-01-30T03:50:59;26.35;;;11.68;;
6173;SDS011;3120;48.796;9.796;2024-01-30T03:53:24;26.38;;;12.95;;
6173;SDS011;3120;48.796;9.796;2024-01-30T03:55:50;23.15;;;12.13;;
6173;SDS011;3120;48.796;9.796;2024-01-30T03:58:16;26.95;;;12.88;;
6173;SDS011;3120;48.796;9.796;2024-01-30T04:00:41;27.23;;;11.57;;
6173;SDS011;3120;48.796;9.796;2024-01-30T04:03:07;27.55;;;12.38;;
6173;SDS011;3120;48.796;9.796;2024-01-30T04:05:32;21.13;;;11.63;;
6173;SDS011;3120;48.796;9.796;2024-01-30T04:07:58;20.60;;;11.38;;
6173;SDS011;3120;48.796;9.796;2024-01-30T04:10:24;24.67;;;13.57;;
6173;SDS011;3120;48.796;9.796;2024-01-30T04:12:52;27.52;;;12.90;;
6173;SDS011;3120;48.796;9.796;2024-01-30T04:15:19;27.52;;;14.20;;
6173;SDS011;3120;48.796;9.796;2024-01-30T04:17:44;26.75;;;14.20;;
6173;SDS011;3120;48.796;9.796;2024-01-30T04:20:13;28.90;;;14.10;;
6173;SDS011;3120;48.796;9.796;2024-01-30T04:22:40;27.13;;;12.93;;
6173;SDS011;3120;48.796;9.796;2024-01-30T04:25:07;27.27;;;14.80;;
6173;SDS011;3120;48.796;9.796;2024-01-30T04:27:33;28.17;;;12.35;;
6173;SDS011;3120;48.796;9.796;2024-01-30T04:29:59;26.15;;;12.70;;
6173;SDS011;3120;48.796;9.796;2024-01-30T04:32:24;30.13;;;13.88;;
6173;SDS011;3120;48.796;9.796;2024-01-30T04:34:50;25.88;;;13.05;;
6173;SDS011;3120;48.796;9.796;2024-01-30T04:37:15;23.50;;;13.13;;
6173;SDS011;3120;48.796;9.796;2024-01-30T04:39:41;26.15;;;13.25;;
6173;SDS011;3120;48.796;9.796;2024-01-30T04:42:06;26.38;;;12.85;;
6173;SDS011;3120;48.796;9.796;2024-01-30T04:44:32;27.30;;;14.13;;
6173;SDS011;3120;48.796;9.796;2024-01-30T04:46:57;25.88;;;12.90;;
6173;SDS011;3120;48.796;9.796;2024-01-30T04:49:26;27.40;;;13.10;;
6173;SDS011;3120;48.796;9.796;2024-01-30T04:51:52;25.10;;;13.32;;
6173;SDS011;3120;48.796;9.796;2024-01-30T04:54:17;23.17;;;13.80;;
6173;SDS011;3120;48.796;9.796;2024-01-30T04:56:43;29.23;;;14.65;;
6173;SDS011;3120;48.796;9.796;2024-01-30T04:59:09;28.17;;;13.40;;
6173;SDS011;3120;48.796;9.796;2024-01-30T05:01:34;32.78;;;13.65;;
6173;SDS011;3120;48.796;9.796;2024-01-30T05:04:00;27.02;;;13.48;;
6173;SDS011;3120;48.796;9.796;2024-01-30T05:06:26;26.63;;;13.15;;
6173;SDS011;3120;48.796;9.796;2024-01-30T05:08:52;30.83;;;14.00;;
6173;SDS011;3120;48.796;9.796;2024-01-30T05:11:18;28.35;;;14.13;;
6173;SDS011;3120;48.796;9.796;2024-01-30T05:13:44;27.52;;;14.25;;
6173;SDS011;3120;48.796;9.796;2024-01-30T05:16:09;24.90;;;13.80;;
6173;SDS011;3120;48.796;9.796;2024-01-30T05:18:35;27.15;;;14.55;;
6173;SDS011;3120;48.796;9.796;2024-01-30T05:21:01;38.78;;;17.58;;
6173;SDS011;3120;48.796;9.796;2024-01-30T05:23:28;30.83;;;14.50;;
6173;SDS011;3120;48.796;9.796;2024-01-30T05:25:54;28.75;;;14.52;;
6173;SDS011;3120;48.796;9.796;2024-01-30T05:28:19;30.45;;;16.17;;
6173;SDS011;3120;48.796;9.796;2024-01-30T05:30:45;23.88;;;13.82;;
6173;SDS011;3120;48.796;9.796;2024-01-30T05:33:11;28.92;;;13.55;;
6173;SDS011;3120;48.796;9.796;2024-01-30T05:35:39;31.70;;;15.13;;
6173;SDS011;3120;48.796;9.796;2024-01-30T05:38:05;21.83;;;12.85;;
6173;SDS011;3120;48.796;9.796;2024-01-30T05:40:30;25.33;;;12.88;;
6173;SDS011;3120;48.796;9.796;2024-01-30T05:42:56;26.58;;;13.15;;
6173;SDS011;3120;48.796;9.796;2024-01-30T05:45:25;25.75;;;13.18;;
6173;SDS011;3120;48.796;9.796;2024-01-30T05:47:51;27.55;;;13.52;;
6173;SDS011;3120;48.796;9.796;2024-01-30T05:50:17;25.05;;;13.05;;
6173;SDS011;3120;48.796;9.796;2024-01-30T05:52:43;28.05;;;13.52;;
6173;SDS011;3120;48.796;9.796;2024-01-30T05:55:08;26.95;;;13.95;;
6173;SDS011;3120;48.796;9.796;2024-01-30T05:57:34;28.60;;;13.60;;
6173;SDS011;3120;48.796;9.796;2024-01-30T06:00:00;23.05;;;12.05;;
6173;SDS011;3120;48.796;9.796;2024-01-30T06:02:26;28.05;;;13.68;;
6173;SDS011;3120;48.796;9.796;2024-01-30T06:04:51;24.95;;;13.88;;
6173;SDS011;3120;48.796;9.796;2024-01-30T06:07:17;32.92;;;13.73;;
6173;SDS011;3120;48.796;9.796;2024-01-30T06:09:42;29.38;;;13.98;;
6173;SDS011;3120;48.796;9.796;2024-01-30T06:12:08;27.80;;;14.38;;
6173;SDS011;3120;48.796;9.796;2024-01-30T06:14:34;29.70;;;13.85;;
6173;SDS011;3120;48.796;9.796;2024-01-30T06:16:59;32.30;;;16.08;;
6173;SDS011;3120;48.796;9.796;2024-01-30T06:19:25;30.52;;;14.80;;
6173;SDS011;3120;48.796;9.796;2024-01-30T06:21:50;27.75;;;14.13;;
6173;SDS011;3120;48.796;9.796;2024-01-30T06:24:16;36.78;;;15.85;;
6173;SDS011;3120;48.796;9.796;2024-01-30T06:26:42;28.13;;;14.43;;
6173;SDS011;3120;48.796;9.796;2024-01-30T06:29:07;36.72;;;15.15;;
6173;SDS011;3120;48.796;9.796;2024-01-30T06:31:34;26.23;;;14.07;;
6173;SDS011;3120;48.796;9.796;2024-01-30T06:34:05;37.40;;;14.60;;
6173;SDS011;3120;48.796;9.796;2024-01-30T06:36:30;25.15;;;13.50;;
6173;SDS011;3120;48.796;9.796;2024-01-30T06:38:56;24.58;;;13.00;;
6173;SDS011;3120;48.796;9.796;2024-01-30T06:41:21;24.73;;;13.38;;
6173;SDS011;3120;48.796;9.796;2024-01-30T06:43:47;24.73;;;13.32;;
6173;SDS011;3120;48.796;9.796;2024-01-30T06:46:13;27.40;;;14.43;;
6173;SDS011;3120;48.796;9.796;2024-01-30T06:48:38;26.40;;;13.60;;
6173;SDS011;3120;48.796;9.796;2024-01-30T06:51:05;24.63;;;13.50;;
6173;SDS011;3120;48.796;9.796;2024-01-30T06:53:31;25.10;;;13.38;;
6173;SDS011;3120;48.796;9.796;2024-01-30T06:55:57;32.65;;;13.25;;
6173;SDS011;3120;48.796;9.796;2024-01-30T06:58:22;29.48;;;13.98;;
6173;SDS011;3120;48.796;9.796;2024-01-30T07:00:48;38.90;;;16.40;;
6173;SDS011;3120;48.796;9.796;2024-01-30T07:03:14;24.10;;;12.45;;
6173;SDS011;3120;48.796;9.796;2024-01-30T07:05:39;22.45;;;12.30;;
6173;SDS011;3120;48.796;9.796;2024-01-30T07:08:05;27.58;;;13.23;;
6173;SDS011;3120;48.796;9.796;2024-01-30T07:10:30;22.15;;;12.93;;
6173;SDS011;3120;48.796;9.796;2024-01-30T07:12:56;22.92;;;12.65;;
6173;SDS011;3120;48.796;9.796;2024-01-30T07:15:22;20.65;;;12.90;;
6173;SDS011;3120;48.796;9.796;2024-01-30T07:17:47;24.52;;;12.73;;
6173;SDS011;3120;48.796;9.796;2024-01-30T07:20:13;28.55;;;12.98;;
6173;SDS011;3120;48.796;9.796;2024-01-30T07:22:39;27.70;;;13.63;;
6173;SDS011;3120;48.796;9.796;2024-01-30T07:25:05;26.13;;;13.00;;
6173;SDS011;3120;48.796;9.796;2024-01-30T07:27:31;27.45;;;13.73;;
6173;SDS011;3120;48.796;9.796;2024-01-30T07:29:56;25.05;;;12.77;;
6173;SDS011;3120;48.796;9.796;2024-01-30T07:32:22;34.28;;;15.88;;
6173;SDS011;3120;48.796;9.796;2024-01-30T07:34:48;24.60;;;13.77;;
6173;SDS011;3120;48.796;9.796;2024-01-30T07:37:14;27.10;;;12.80;;
6173;SDS011;3120;48.796;9.796;2024-01-30T07:39:41;23.80;;;13.15;;
6173;SDS011;3120;48.796;9.796;2024-01-30T07:42:08;22.23;;;12.63;;
6173;SDS011;3120;48.796;9.796;2024-01-30T07:44:33;29.73;;;13.48;;
6173;SDS011;3120;48.796;9.796;2024-01-30T07:46:59;30.38;;;12.25;;
6173;SDS011;3120;48.796;9.796;2024-01-30T07:49:24;25.60;;;12.93;;
6173;SDS011;3120;48.796;9.796;2024-01-30T07:51:50;25.05;;;12.60;;
6173;SDS011;3120;48.796;9.796;2024-01-30T07:54:16;20.40;;;12.48;;
6173;SDS011;3120;48.796;9.796;2024-01-30T07:56:42;24.27;;;12.85;;
6173;SDS011;3120;48.796;9.796;2024-01-30T07:59:11;24.77;;;12.15;;
6173;SDS011;3120;48.796;9.796;2024-01-30T08:01:37;27.40;;;12.20;;
6173;SDS011;3120;48.796;9.796;2024-01-30T08:04:03;23.23;;;11.55;;
6173;SDS011;3120;48.796;9.796;2024-01-30T08:06:29;21.90;;;11.50;;
6173;SDS011;3120;48.796;9.796;2024-01-30T08:08:56;26.13;;;12.45;;
6173;SDS011;3120;48.796;9.796;2024-01-30T08:11:24;23.92;;;12.82;;
6173;SDS011;3120;48.796;9.796;2024-01-30T08:13:52;25.63;;;12.88;;
6173;SDS011;3120;48.796;9.796;2024-01-30T08:16:17;24.67;;;12.63;;
6173;SDS011;3120;48.796;9.796;2024-01-30T08:18:43;21.20;;;11.80;;
6173;SDS011;3120;48.796;9.796;2024-01-30T08:21:09;23.23;;;12.10;;
6173;SDS011;3120;48.796;9.796;2024-01-30T08:23:35;21.20;;;12.20;;
6173;SDS011;3120;48.796;9.796;2024-01-30T08:26:00;25.88;;;13.32;;
6173;SDS011;3120;48.796;9.796;2024-01-30T08:28:26;24.13;;;12.20;;
6173;SDS011;3120;48.796;9.796;2024-01-30T08:30:52;33.63;;;14.18;;
6173;SDS011;3120;48.796;9.796;2024-01-30T08:33:21;25.20;;;12.98;;
6173;SDS011;3120;48.796;9.796;2024-01-30T08:35:46;27.85;;;12.70;;
6173;SDS011;3120;48.796;9.796;2024-01-30T08:38:12;25.55;;;13.40;;
6173;SDS011;3120;48.796;9.796;2024-01-30T08:40:37;34.83;;;14.00;;
6173;SDS011;3120;48.796;9.796;2024-01-30T08:43:03;28.65;;;13.98;;
6173;SDS011;3120;48.796;9.796;2024-01-30T08:45:29;26.35;;;13.93;;
6173;SDS011;3120;48.796;9.796;2024-01-30T08:47:55;24.75;;;13.27;;
6173;SDS011;3120;48.796;9.796;2024-01-30T08:50:21;26.75;;;13.13;;
6173;SDS011;3120;48.796;9.796;2024-01-30T08:52:47;26.10;;;13.13;;
6173;SDS011;3120;48.796;9.796;2024-01-30T08:55:12;23.27;;;13.38;;
6173;SDS011;3120;48.796;9.796;2024-01-30T08:57:38;26.13;;;13.18;;
6173;SDS011;3120;48.796;9.796;2024-01-30T09:00:03;24.35;;;13.68;;
6173;SDS011;3120;48.796;9.796;2024-01-30T09:02:31;23.58;;;13.18;;
6173;SDS011;3120;48.796;9.796;2024-01-30T09:04:57;31.08;;;12.60;;
6173;SDS011;3120;48.796;9.796;2024-01-30T09:07:23;20.08;;;12.23;;
6173;SDS011;3120;48.796;9.796;2024-01-30T09:09:49;23.33;;;12.35;;
6173;SDS011;3120;48.796;9.796;2024-01-30T09:12:14;23.88;;;10.90;;
6173;SDS011;3120;48.796;9.796;2024-01-30T09:14:40;23.35;;;10.70;;
6173;SDS011;3120;48.796;9.796;2024-01-30T09:17:06;21.60;;;10.93;;
6173;SDS011;3120;48.796;9.796;2024-01-30T09:19:32;18.40;;;11.20;;
6173;SDS011;3120;48.796;9.796;2024-01-30T09:21:57;20.38;;;10.95;;
6173;SDS011;3120;48.796;9.796;2024-01-30T09:24:23;21.02;;;11.20;;
6173;SDS011;3120;48.796;9.796;2024-01-30T09:26:49;19.42;;;11.20;;
6173;SDS011;3120;48.796;9.796;2024-01-30T09:29:14;18.90;;;11.50;;
6173;SDS011;3120;48.796;9.796;2024-01-30T09:31:42;23.67;;;11.32;;
6173;SDS011;3120;48.796;9.796;2024-01-30T09:34:09;22.67;;;11.45;;
6173;SDS011;3120;48.796;9.796;2024-01-30T09:36:35;27.10;;;11.50;;
6173;SDS011;3120;48.796;9.796;2024-01-30T09:39:01;18.88;;;10.90;;
6173;SDS011;3120;48.796;9.796;2024-01-30T09:41:27;18.95;;;12.18;;
6173;SDS011;3120;48.796;9.796;2024-01-30T09:43:54;17.80;;;11.52;;
6173;SDS011;3120;48.796;9.796;2024-01-30T09:46:22;31.00;;;11.60;;
6173;SDS011;3120;48.796;9.796;2024-01-30T09:48:52;20.25;;;9.75;;
6173;SDS011;3120;48.796;9.796;2024-01-30T09:51:20;28.95;;;10.43;;
6173;SDS011;3120;48.796;9.796;2024-01-30T09:53:47;21.42;;;10.75;;
6173;SDS011;3120;48.796;9.796;2024-01-30T09:56:13;20.80;;;11.00;;
6173;SDS011;3120;48.796;9.796;2024-01-30T09:58:39;19.05;;;10.43;;
6173;SDS011;3120;48.796;9.796;2024-01-30T10:01:05;19.77;;;11.30;;
6173;SDS011;3120;48.796;9.796;2024-01-30T10:03:30;16.20;;;10.73;;
6173;SDS011;3120;48.796;9.796;2024-01-30T10:05:56;20.45;;;11.27;;
6173;SDS011;3120;48.796;9.796;2024-01-30T10:08:22;17.60;;;10.82;;
6173;SDS011;3120;48.796;9.796;2024-01-30T10:10:48;23.23;;;10.90;;
6173;SDS011;3120;48.796;9.796;2024-01-30T10:13:15;20.85;;;11.38;;
6173;SDS011;3120;48.796;9.796;2024-01-30T10:15:41;18.60;;;10.88;;
6173;SDS011;3120;48.796;9.796;2024-01-30T10:18:08;15.02;;;10.18;;
6173;SDS011;3120;48.796;9.796;2024-01-30T10:20:35;19.58;;;10.63;;
6173;SDS011;3120;48.796;9.796;2024-01-30T10:23:01;19.67;;;10.98;;
6173;SDS011;3120;48.796;9.796;2024-01-30T10:25:27;18.73;;;10.80;;
6173;SDS011;3120;48.796;9.796;2024-01-30T10:27:55;20.75;;;10.45;;
6173;SDS011;3120;48.796;9.796;2024-01-30T10:30:21;17.25;;;11.15;;
6173;SDS011;3120;48.796;9.796;2024-01-30T10:32:48;15.05;;;10.20;;
6173;SDS011;3120;48.796;9.796;2024-01-30T10:35:13;19.48;;;10.77;;
6173;SDS011;3120;48.796;9.796;2024-01-30T10:37:39;20.38;;;11.25;;
6173;SDS011;3120;48.796;9.796;2024-01-30T10:40:08;18.02;;;9.98;;
6173;SDS011;3120;48.796;9.796;2024-01-30T10:42:36;17.98;;;9.75;;
6173;SDS011;3120;48.796;9.796;2024-01-30T10:45:07;19.80;;;9.68;;
6173;SDS011;3120;48.796;9.796;2024-01-30T10:47:34;15.73;;;10.15;;
6173;SDS011;3120;48.796;9.796;2024-01-30T10:50:03;19.20;;;10.73;;
6173;SDS011;3120;48.796;9.796;2024-01-30T10:52:30;15.93;;;10.68;;
6173;SDS011;3120;48.796;9.796;2024-01-30T10:54:57;20.67;;;11.18;;
6173;SDS011;3120;48.796;9.796;2024-01-30T10:57:24;20.38;;;10.35;;
6173;SDS011;3120;48.796;9.796;2024-01-30T10:59:55;27.85;;;14.07;;
6173;SDS011;3120;48.796;9.796;2024-01-30T11:04:49;34.33;;;14.85;;
6173;SDS011;3120;48.796;9.796;2024-01-30T11:07:18;24.98;;;13.95;;
6173;SDS011;3120;48.796;9.796;2024-01-30T11:12:26;30.45;;;15.15;;
6173;SDS011;3120;48.796;9.796;2024-01-30T11:15:02;36.45;;;17.17;;
6173;SDS011;3120;48.796;9.796;2024-01-30T11:17:42;35.47;;;16.88;;
6173;SDS011;3120;48.796;9.796;2024-01-30T11:20:14;36.95;;;19.42;;
6173;SDS011;3120;48.796;9.796;2024-01-30T11:22:41;40.70;;;19.92;;
6173;SDS011;3120;48.796;9.796;2024-01-30T11:25:13;43.22;;;21.02;;
6173;SDS011;3120;48.796;9.796;2024-01-30T11:27:39;45.67;;;21.70;;
6173;SDS011;3120;48.796;9.796;2024-01-30T11:30:06;41.70;;;18.80;;
6173;SDS011;3120;48.796;9.796;2024-01-30T11:32:32;37.10;;;18.80;;
6173;SDS011;3120;48.796;9.796;2024-01-30T11:34:58;38.95;;;17.02;;
6173;SDS011;3120;48.796;9.796;2024-01-30T11:37:24;28.85;;;13.70;;
6173;SDS011;3120;48.796;9.796;2024-01-30T11:39:53;32.70;;;13.75;;
6173;SDS011;3120;48.796;9.796;2024-01-30T11:42:19;30.13;;;14.35;;
6173;SDS011;3120;48.796;9.796;2024-01-30T11:44:48;33.80;;;15.02;;
6173;SDS011;3120;48.796;9.796;2024-01-30T11:47:14;29.15;;;14.60;;
6173;SDS011;3120;48.796;9.796;2024-01-30T11:49:40;31.60;;;15.07;;
6173;SDS011;3120;48.796;9.796;2024-01-30T11:52:06;30.52;;;14.52;;
6173;SDS011;3120;48.796;9.796;2024-01-30T11:54:32;33.63;;;15.35;;
6173;SDS011;3120;48.796;9.796;2024-01-30T11:56:58;30.60;;;15.25;;
6173;SDS011;3120;48.796;9.796;2024-01-30T11:59:23;28.65;;;13.00;;
6173;SDS011;3120;48.796;9.796;2024-01-30T12:01:51;25.70;;;12.95;;
6173;SDS011;3120;48.796;9.796;2024-01-30T12:04:17;22.50;;;12.40;;
6173;SDS011;3120;48.796;9.796;2024-01-30T12:06:42;35.42;;;14.15;;
6173;SDS011;3120;48.796;9.796;2024-01-30T12:09:08;20.33;;;11.55;;
6173;SDS011;3120;48.796;9.796;2024-01-30T12:11:55;24.02;;;11.63;;
6173;SDS011;3120;48.796;9.796;2024-01-30T12:14:22;22.52;;;12.15;;
6173;SDS011;3120;48.796;9.796;2024-01-30T12:16:48;26.17;;;13.18;;
6173;SDS011;3120;48.796;9.796;2024-01-30T12:19:25;28.45;;;13.48;;
6173;SDS011;3120;48.796;9.796;2024-01-30T12:21:54;30.05;;;14.85;;
6173;SDS011;3120;48.796;9.796;2024-01-30T12:24:24;32.65;;;14.43;;
6173;SDS011;3120;48.796;9.796;2024-01-30T12:26:58;26.35;;;13.88;;
6173;SDS011;3120;48.796;9.796;2024-01-30T12:29:24;27.58;;;12.10;;
6173;SDS011;3120;48.796;9.796;2024-01-30T12:31:52;28.42;;;14.13;;
6173;SDS011;3120;48.796;9.796;2024-01-30T12:34:19;23.65;;;12.13;;
6173;SDS011;3120;48.796;9.796;2024-01-30T12:36:46;31.08;;;13.18;;
6173;SDS011;3120;48.796;9.796;2024-01-30T12:39:14;26.23;;;10.63;;
6173;SDS011;3120;48.796;9.796;2024-01-30T12:41:40;28.80;;;12.07;;
6173;SDS011;3120;48.796;9.796;2024-01-30T12:44:06;20.30;;;9.05;;
6173;SDS011;3120;48.796;9.796;2024-01-30T12:46:34;26.02;;;10.30;;
6173;SDS011;3120;48.796;9.796;2024-01-30T12:49:00;16.50;;;7.72;;
6173;SDS011;3120;48.796;9.796;2024-01-30T12:51:25;23.70;;;8.90;;
6173;SDS011;3120;48.796;9.796;2024-01-30T12:53:51;12.82;;;6.15;;
6173;SDS011;3120;48.796;9.796;2024-01-30T12:56:17;12.73;;;6.18;;
6173;SDS011;3120;48.796;9.796;2024-01-30T12:58:42;15.70;;;6.45;;
6173;SDS011;3120;48.796;9.796;2024-01-30T13:01:08;12.77;;;5.68;;
6173;SDS011;3120;48.796;9.796;2024-01-30T13:03:34;8.98;;;4.53;;
6173;SDS011;3120;48.796;9.796;2024-01-30T13:05:59;7.55;;;3.42;;
6173;SDS011;3120;48.796;9.796;2024-01-30T13:08:25;8.77;;;3.45;;
6173;SDS011;3120;48.796;9.796;2024-01-30T13:10:51;9.73;;;3.30;;
6173;SDS011;3120;48.796;9.796;2024-01-30T13:13:16;6.35;;;3.10;;
6173;SDS011;3120;48.796;9.796;2024-01-30T13:15:42;7.60;;;2.63;;
6173;SDS011;3120;48.796;9.796;2024-01-30T13:18:07;5.35;;;3.00;;
6173;SDS011;3120;48.796;9.796;2024-01-30T13:20:33;6.75;;;2.72;;
6173;SDS011;3120;48.796;9.796;2024-01-30T13:22:59;6.20;;;2.88;;
6173;SDS011;3120;48.796;9.796;2024-01-30T13:25:24;4.15;;;2.83;;
6173;SDS011;3120;48.796;9.796;2024-01-30T13:27:50;9.07;;;3.13;;
6173;SDS011;3120;48.796;9.796;2024-01-30T13:30:15;5.60;;;3.00;;
6173;SDS011;3120;48.796;9.796;2024-01-30T13:32:41;11.02;;;2.65;;
6173;SDS011;3120;48.796;9.796;2024-01-30T13:35:09;4.07;;;2.35;;
6173;SDS011;3120;48.796;9.796;2024-01-30T13:37:35;5.43;;;2.63;;
6173;SDS011;3120;48.796;9.796;2024-01-30T13:40:02;5.47;;;2.33;;
6173;SDS011;3120;48.796;9.796;2024-01-30T13:42:31;5.03;;;2.15;;
6173;SDS011;3120;48.796;9.796;2024-01-30T13:44:57;4.53;;;2.28;;
6173;SDS011;3120;48.796;9.796;2024-01-30T13:47:23;4.85;;;2.33;;
6173;SDS011;3120;48.796;9.796;2024-01-30T13:49:48;5.38;;;2.78;;
6173;SDS011;3120;48.796;9.796;2024-01-30T13:52:14;19.17;;;3.03;;
6173;SDS011;3120;48.796;9.796;2024-01-30T13:54:39;5.57;;;3.97;;
6173;SDS011;3120;48.796;9.796;2024-01-30T13:57:05;9.40;;;4.25;;
6173;SDS011;3120;48.796;9.796;2024-01-30T13:59:32;30.25;;;16.65;;
6173;SDS011;3120;48.796;9.796;2024-01-30T14:01:58;83.93;;;45.40;;
6173;SDS011;3120;48.796;9.796;2024-01-30T14:04:23;16.88;;;9.73;;
6173;SDS011;3120;48.796;9.796;2024-01-30T14:06:49;24.60;;;14.88;;
6173;SDS011;3120;48.796;9.796;2024-01-30T14:09:15;12.75;;;5.90;;
6173;SDS011;3120;48.796;9.796;2024-01-30T14:11:41;5.68;;;2.85;;
6173;SDS011;3120;48.796;9.796;2024-01-30T14:14:07;23.75;;;10.38;;
6173;SDS011;3120;48.796;9.796;2024-01-30T14:16:33;6.60;;;2.90;;
6173;SDS011;3120;48.796;9.796;2024-01-30T14:18:59;19.60;;;12.35;;
6173;SDS011;3120;48.796;9.796;2024-01-30T14:21:25;8.57;;;3.28;;
6173;SDS011;3120;48.796;9.796;2024-01-30T14:23:50;6.00;;;3.33;;
6173;SDS011;3120;48.796;9.796;2024-01-30T14:26:16;11.68;;;3.10;;
6173;SDS011;3120;48.796;9.796;2024-01-30T14:28:43;6.50;;;2.58;;
6173;SDS011;3120;48.796;9.796;2024-01-30T14:31:10;10.00;;;3.33;;
6173;SDS011;3120;48.796;9.796;2024-01-30T14:33:36;7.53;;;3.00;;
6173;SDS011;3120;48.796;9.796;2024-01-30T14:36:02;8.27;;;2.78;;
6173;SDS011;3120;48.796;9.796;2024-01-30T14:38:31;18.33;;;3.50;;
6173;SDS011;3120;48.796;9.796;2024-01-30T14:40:56;13.13;;;3.40;;
6173;SDS011;3120;48.796;9.796;2024-01-30T14:43:22;18.63;;;4.93;;
6173;SDS011;3120;48.796;9.796;2024-01-30T14:45:47;16.60;;;4.03;;
6173;SDS011;3120;48.796;9.796;2024-01-30T14:48:14;19.40;;;4.05;;
6173;SDS011;3120;48.796;9.796;2024-01-30T14:50:40;22.40;;;4.85;;